Suakin — ZCIL — position and weather

sailwx.info

Track history (hours):
 
Tides and Currents Weather Stations Pressure Air Temp Water Temp Dewpoint Dewpoint Depression Visibility Wind Speed Wind Dir Waves Ship Positions

Suakin

Last reported at 2015-May-22 02:22 UTC. Time now 2015-May-23 01:11 UTC.
Position N 36°07' W 005°23'.

Length 33 m; draft 2.5 m.

Type: Pleasure craft. MMSI: 319897000.

Date/timePositionNaut miles runAvg speedWind from/ knotsBaromVisibWave heightAir tempDewpointWater temp
2015-May-22 02:22N 36°07' W 005°23'1110.3
2015-May-22 01:18N 35°57' W 005°30'290 9.7
2015-May-20 19:22N 36°50' W 011°23'52110.0
2015-May-18 15:29N 37°20' W 022°15'1310.1
2015-May-18 14:13N 37°13' W 022°29'2210.5
2015-May-18 12:07N 37°06' W 022°55'4810.5
2015-May-18 07:30N 36°50' W 023°52'1010.6
2015-May-18 06:33N 36°47' W 024°04'1110.7
2015-May-18 05:34N 36°44' W 024°17'1110.8
2015-May-18 04:33N 36°40' W 024°29'1111.0
2015-May-18 03:33N 36°37' W 024°42'1110.6
2015-May-18 02:34N 36°33' W 024°55'1010.5
2015-May-18 01:33N 36°30' W 025°07'1010.4
2015-May-18 00:33N 36°26' W 025°19'1010.2
2015-May-17 23:33N 36°23' W 025°31'1110.6
2015-May-17 22:33N 36°19' W 025°43'1110.6
2015-May-17 21:33N 36°15' W 025°56'3210.8
2015-May-17 18:33N 36°02' W 026°33'1210.4
2015-May-17 17:22N 35°58' W 026°47'9 9.9
2015-May-17 16:28N 35°58' W 026°58'  
Track history (hours):
 
Tides and Currents Weather Stations Pressure Air Temp Water Temp Dewpoint Dewpoint Depression Visibility Wind Speed Wind Dir Waves Ship Positions

Suakin

Last reported at 2015-May-22 02:22 UTC. Time now 2015-May-23 01:11 UTC.
Position N 36°07' W 005°23'.

Length 33 m; draft 2.5 m.

Type: Pleasure craft. MMSI: 319897000.

Date/timePositionNaut miles runAvg speedWind from/ knotsBaromVisibWave heightAir tempDewpointWater temp
2015-May-22 02:22N 36°07' W 005°23'1110.3
2015-May-22 01:18N 35°57' W 005°30'290 9.7
2015-May-20 19:22N 36°50' W 011°23'52110.0
2015-May-18 15:29N 37°20' W 022°15'1310.1
2015-May-18 14:13N 37°13' W 022°29'2210.5
2015-May-18 12:07N 37°06' W 022°55'4810.5
2015-May-18 07:30N 36°50' W 023°52'1010.6
2015-May-18 06:33N 36°47' W 024°04'1110.7
2015-May-18 05:34N 36°44' W 024°17'1110.8
2015-May-18 04:33N 36°40' W 024°29'1111.0
2015-May-18 03:33N 36°37' W 024°42'1110.6
2015-May-18 02:34N 36°33' W 024°55'1010.5
2015-May-18 01:33N 36°30' W 025°07'1010.4
2015-May-18 00:33N 36°26' W 025°19'1010.2
2015-May-17 23:33N 36°23' W 025°31'1110.6
2015-May-17 22:33N 36°19' W 025°43'1110.6
2015-May-17 21:33N 36°15' W 025°56'3210.8
2015-May-17 18:33N 36°02' W 026°33'1210.4
2015-May-17 17:22N 35°58' W 026°47'9 9.9
2015-May-17 16:28N 35°58' W 026°58'  

Dump ship's entire track history